createdAt,value
2022-12-04T00:01:18.012Z,6.90
2022-12-04T00:03:46.440Z,6.90
2022-12-04T00:06:18.967Z,6.80
2022-12-04T00:08:47.933Z,6.80
2022-12-04T00:11:18.614Z,6.80
2022-12-04T00:13:46.713Z,6.80
2022-12-04T00:16:19.717Z,6.80
2022-12-04T00:18:47.802Z,6.80
2022-12-04T00:21:16.428Z,6.70
2022-12-04T00:23:44.558Z,6.70
2022-12-04T00:26:21.945Z,6.60
2022-12-04T00:28:50.216Z,6.60
2022-12-04T00:31:21.155Z,6.60
2022-12-04T00:33:48.968Z,6.50
2022-12-04T00:36:18.510Z,6.60
2022-12-04T00:38:46.629Z,6.50
2022-12-04T00:41:16.235Z,6.50
2022-12-04T00:43:43.903Z,6.50
2022-12-04T00:46:11.950Z,6.50
2022-12-04T00:48:39.955Z,6.60
2022-12-04T00:51:11.506Z,6.50
2022-12-04T00:53:39.375Z,6.50
2022-12-04T00:56:09.008Z,6.60
2022-12-04T00:58:36.849Z,6.60
2022-12-04T01:01:09.661Z,6.60
2022-12-04T01:03:37.426Z,6.60
2022-12-04T01:06:05.942Z,6.60
2022-12-04T01:08:33.868Z,6.60
2022-12-04T01:11:06.245Z,6.60
2022-12-04T01:13:33.777Z,6.60
2022-12-04T01:16:01.432Z,6.50
2022-12-04T01:18:29.029Z,6.50
2022-12-04T01:20:56.459Z,6.50
2022-12-04T01:23:23.952Z,6.50
2022-12-04T01:25:56.935Z,6.50
2022-12-04T01:28:25.070Z,6.50
2022-12-04T01:31:02.387Z,6.50
2022-12-04T01:33:30.297Z,6.50
2022-12-04T01:35:59.710Z,6.40
2022-12-04T01:38:28.340Z,6.30
2022-12-04T01:40:57.467Z,6.20
2022-12-04T01:43:26.670Z,6.20
2022-12-04T01:45:56.622Z,6.10
2022-12-04T01:48:27.722Z,6.10
2022-12-04T01:51:04.773Z,6.10
2022-12-04T01:53:35.344Z,6.10
2022-12-04T01:56:03.738Z,6.10
2022-12-04T01:58:35.159Z,6.20
2022-12-04T02:01:08.881Z,6.20
2022-12-04T02:03:38.308Z,6.20
2022-12-04T02:06:06.534Z,6.30
2022-12-04T02:08:35.147Z,6.30
2022-12-04T02:11:43.720Z,6.40
2022-12-04T02:14:32.549Z,6.40
2022-12-04T02:17:20.643Z,6.50
2022-12-04T02:20:14.317Z,6.60
2022-12-04T02:22:54.928Z,6.60
2022-12-04T02:25:25.461Z,6.70
2022-12-04T02:28:25.183Z,6.70
2022-12-04T02:30:57.910Z,6.70
2022-12-04T02:33:37.191Z,6.80
2022-12-04T02:36:13.477Z,6.70
2022-12-04T02:38:47.119Z,6.70
2022-12-04T02:41:34.376Z,6.80
2022-12-04T02:44:20.373Z,6.70
2022-12-04T02:46:51.694Z,6.70
2022-12-04T02:49:25.289Z,6.60
2022-12-04T02:51:54.595Z,6.60
2022-12-04T02:54:38.666Z,6.60
2022-12-04T02:57:11.452Z,6.60
2022-12-04T02:59:45.741Z,6.50
2022-12-04T03:02:39.788Z,6.40
2022-12-04T03:05:15.825Z,6.30
2022-12-04T03:07:52.631Z,6.30
2022-12-04T03:10:34.138Z,6.20
2022-12-04T03:13:20.613Z,6.20
2022-12-04T03:15:50.605Z,6.10
2022-12-04T03:18:28.016Z,6.10
2022-12-04T03:21:06.765Z,6.20
2022-12-04T03:23:56.345Z,6.20
2022-12-04T03:26:34.237Z,6.20
2022-12-04T03:29:04.812Z,6.20
2022-12-04T03:31:46.021Z,6.30
2022-12-04T03:34:19.696Z,6.40
2022-12-04T03:37:01.711Z,6.40
2022-12-04T03:39:41.615Z,6.40
2022-12-04T03:42:17.951Z,6.50
2022-12-04T03:44:54.607Z,6.50
2022-12-04T03:47:35.299Z,6.50
2022-12-04T03:50:10.248Z,6.40
2022-12-04T03:52:54.975Z,6.30
2022-12-04T03:55:34.943Z,6.30
2022-12-04T03:58:07.587Z,6.20
2022-12-04T04:00:40.294Z,6.20
2022-12-04T04:03:30.293Z,6.20
2022-12-04T04:06:06.662Z,6.30
2022-12-04T04:08:38.957Z,6.30
2022-12-04T04:11:17.318Z,6.40
2022-12-04T04:14:11.092Z,6.30
2022-12-04T04:17:01.885Z,6.40
2022-12-04T04:19:51.842Z,6.40
2022-12-04T04:22:40.083Z,6.40
2022-12-04T04:25:14.784Z,6.40
2022-12-04T04:27:42.612Z,6.20
2022-12-04T04:30:10.620Z,6.00
2022-12-04T04:32:42.844Z,5.90
2022-12-04T04:35:34.284Z,5.90
2022-12-04T04:38:26.843Z,5.90
2022-12-04T04:41:01.967Z,5.90
2022-12-04T04:43:45.832Z,5.80
2022-12-04T04:46:25.364Z,5.90
2022-12-04T04:48:57.609Z,5.90
2022-12-04T04:51:26.459Z,6.00
2022-12-04T04:53:58.197Z,6.00
2022-12-04T04:56:25.962Z,6.00
2022-12-04T04:58:53.383Z,6.00
2022-12-04T05:01:24.564Z,6.00
2022-12-04T05:03:52.376Z,6.00
2022-12-04T05:06:20.161Z,6.00
2022-12-04T05:08:49.375Z,6.00
2022-12-04T05:11:17.543Z,5.90
2022-12-04T05:13:45.083Z,5.90
2022-12-04T05:16:14.987Z,5.80
2022-12-04T05:19:01.428Z,5.60
2022-12-04T05:21:28.889Z,5.50
2022-12-04T05:23:56.513Z,5.40
2022-12-04T05:26:24.538Z,5.40
2022-12-04T05:28:52.246Z,5.40
2022-12-04T05:31:19.779Z,5.40
2022-12-04T05:33:47.325Z,5.50
2022-12-04T05:36:14.867Z,5.50
2022-12-04T05:38:42.497Z,5.40
2022-12-04T05:41:10.076Z,5.50
2022-12-04T05:43:37.989Z,5.50
2022-12-04T05:46:07.741Z,5.60
2022-12-04T05:48:35.823Z,5.70
2022-12-04T05:51:08.306Z,5.70
2022-12-04T05:53:36.486Z,5.90
2022-12-04T05:56:06.089Z,5.80
2022-12-04T05:58:38.338Z,5.50
2022-12-04T06:01:21.004Z,5.50
2022-12-04T06:03:48.618Z,5.50
2022-12-04T06:06:21.486Z,5.40
2022-12-04T06:08:56.193Z,5.40
2022-12-04T06:11:46.041Z,5.50
2022-12-04T06:14:16.299Z,5.70
2022-12-04T06:16:46.337Z,5.80
2022-12-04T06:19:16.664Z,5.70
2022-12-04T06:21:46.523Z,5.70
2022-12-04T06:24:23.131Z,5.60
2022-12-04T06:27:25.756Z,5.60
2022-12-04T06:29:38.993Z,5.60
2022-12-04T06:32:06.565Z,5.50
2022-12-04T06:34:35.638Z,5.60
2022-12-04T06:37:03.095Z,5.60
2022-12-04T06:39:30.644Z,5.80
2022-12-04T06:41:58.072Z,5.80
2022-12-04T06:44:25.620Z,5.80
2022-12-04T06:46:54.793Z,5.90
2022-12-04T06:49:23.061Z,5.90
2022-12-04T06:51:50.589Z,5.90
2022-12-04T06:54:18.128Z,5.90
2022-12-04T06:56:45.572Z,5.90
2022-12-04T06:59:13.198Z,6.00
2022-12-04T07:01:40.776Z,6.00
2022-12-04T07:04:08.401Z,6.00
2022-12-04T07:06:38.201Z,5.90
2022-12-04T07:09:10.496Z,5.90
2022-12-04T07:11:39.374Z,5.80
2022-12-04T07:14:07.388Z,5.90
2022-12-04T07:16:40.289Z,5.70
2022-12-04T07:19:09.974Z,5.90
2022-12-04T07:21:37.628Z,5.90
2022-12-04T07:24:05.306Z,5.90
2022-12-04T07:26:32.971Z,5.90
2022-12-04T07:29:00.535Z,6.00
2022-12-04T07:31:29.756Z,6.10
2022-12-04T07:33:58.229Z,6.00
2022-12-04T07:36:27.554Z,6.00
2022-12-04T07:38:56.327Z,6.10
2022-12-04T07:41:23.980Z,6.10
2022-12-04T07:43:51.544Z,6.10
2022-12-04T07:46:22.950Z,6.10
2022-12-04T07:48:50.585Z,6.10
2022-12-04T07:51:23.960Z,6.20
2022-12-04T07:53:53.464Z,6.20
2022-12-04T07:56:21.615Z,6.20
2022-12-04T07:58:49.250Z,6.40
2022-12-04T08:01:22.410Z,6.30
2022-12-04T08:03:52.407Z,6.40
2022-12-04T08:06:21.935Z,6.30
2022-12-04T08:08:49.984Z,6.30
2022-12-04T08:11:20.008Z,6.30
2022-12-04T08:13:47.726Z,6.40
2022-12-04T08:16:15.947Z,6.30
2022-12-04T08:18:46.976Z,6.30
2022-12-04T08:21:21.057Z,6.30
2022-12-04T08:23:51.052Z,6.30
2022-12-04T08:26:20.093Z,6.30
2022-12-04T08:28:47.671Z,6.30
2022-12-04T08:31:20.950Z,6.30
2022-12-04T08:33:50.160Z,6.30
2022-12-04T08:36:20.256Z,6.20
2022-12-04T08:38:48.586Z,6.20
2022-12-04T08:41:18.855Z,6.00
2022-12-04T08:43:46.436Z,5.90
2022-12-04T08:46:16.804Z,5.80
2022-12-04T08:48:44.914Z,5.90
2022-12-04T08:51:18.230Z,5.70
2022-12-04T08:53:45.874Z,5.90
2022-12-04T08:56:13.868Z,5.70
2022-12-04T08:58:41.374Z,6.00
2022-12-04T09:01:11.553Z,6.10
2022-12-04T09:03:40.129Z,6.10
2022-12-04T09:06:08.916Z,6.10
2022-12-04T09:08:37.072Z,6.10
2022-12-04T09:11:06.698Z,6.30
2022-12-04T09:13:34.744Z,6.40
2022-12-04T09:16:07.881Z,6.40
2022-12-04T09:18:36.697Z,6.50
2022-12-04T09:21:09.967Z,6.50
2022-12-04T09:23:38.955Z,6.60
2022-12-04T09:26:15.636Z,6.60
2022-12-04T09:28:43.141Z,6.50
2022-12-04T09:31:10.833Z,6.60
2022-12-04T09:33:38.495Z,6.70
2022-12-04T09:36:06.588Z,6.70
2022-12-04T09:38:34.105Z,6.80
2022-12-04T09:41:22.525Z,6.40
2022-12-04T09:44:05.344Z,6.10
2022-12-04T09:47:00.237Z,6.10
2022-12-04T09:49:49.143Z,6.10
2022-12-04T09:52:33.771Z,5.90
2022-12-04T09:55:05.251Z,6.10
2022-12-04T09:57:43.978Z,6.10
2022-12-04T10:00:16.158Z,6.00
2022-12-04T10:02:52.005Z,6.30
2022-12-04T10:05:22.740Z,6.20
2022-12-04T10:07:53.310Z,6.30
2022-12-04T10:10:49.293Z,6.40
2022-12-04T10:13:41.001Z,6.30
2022-12-04T10:16:42.038Z,6.30
2022-12-04T10:19:22.287Z,6.40
2022-12-04T10:22:18.805Z,6.40
2022-12-04T10:24:54.130Z,6.30
2022-12-04T10:27:28.009Z,6.50
2022-12-04T10:30:16.410Z,6.40
2022-12-04T10:32:48.496Z,6.60
2022-12-04T10:35:20.844Z,6.60
2022-12-04T10:38:02.174Z,6.50
2022-12-04T10:40:47.295Z,6.50
2022-12-04T10:43:27.419Z,6.40
2022-12-04T10:45:55.490Z,6.30
2022-12-04T10:48:28.374Z,6.40
2022-12-04T10:50:55.880Z,6.50
2022-12-04T10:53:34.671Z,6.50
2022-12-04T10:56:14.132Z,6.50
2022-12-04T10:58:41.847Z,6.50
2022-12-04T11:01:14.585Z,6.40
2022-12-04T11:03:44.876Z,6.40
2022-12-04T11:06:14.805Z,6.40
2022-12-04T11:08:48.818Z,6.40
2022-12-04T11:11:22.758Z,6.40
2022-12-04T11:14:02.165Z,6.40
2022-12-04T11:16:39.098Z,6.50
2022-12-04T11:19:26.470Z,6.60
2022-12-04T11:22:03.582Z,6.60
2022-12-04T11:24:35.524Z,6.60
2022-12-04T11:27:05.328Z,6.70
2022-12-04T11:29:41.652Z,6.70
2022-12-04T11:32:25.273Z,6.60
2022-12-04T11:34:57.289Z,6.70
2022-12-04T11:37:34.173Z,6.70
2022-12-04T11:40:06.956Z,6.70
2022-12-04T11:42:34.507Z,6.70
2022-12-04T11:45:21.018Z,6.80
2022-12-04T11:48:02.661Z,6.90
2022-12-04T11:50:33.799Z,6.80
2022-12-04T11:53:24.274Z,6.80
2022-12-04T11:56:28.993Z,6.90
2022-12-04T11:59:28.128Z,6.90
2022-12-04T12:02:33.023Z,6.90
2022-12-04T12:05:21.731Z,6.90
2022-12-04T12:08:10.043Z,6.80
2022-12-04T12:10:52.380Z,6.80
2022-12-04T12:13:42.912Z,6.80
2022-12-04T12:16:51.673Z,6.90
2022-12-04T12:19:47.373Z,6.90
2022-12-04T12:22:46.312Z,7.00
2022-12-04T12:25:16.603Z,7.00
2022-12-04T12:28:08.598Z,7.00
2022-12-04T12:30:44.902Z,6.90
2022-12-04T12:33:20.054Z,6.80
2022-12-04T12:36:13.139Z,6.70
2022-12-04T12:38:51.205Z,6.70
2022-12-04T12:41:42.179Z,6.70
2022-12-04T12:44:25.466Z,6.70
2022-12-04T12:47:00.276Z,6.60
2022-12-04T12:49:55.865Z,6.50
2022-12-04T12:52:45.556Z,6.50
2022-12-04T12:55:38.998Z,6.50
2022-12-04T12:58:09.490Z,6.50
2022-12-04T13:00:41.745Z,6.60
2022-12-04T13:03:46.072Z,6.60
2022-12-04T13:06:21.998Z,6.50
2022-12-04T13:08:59.067Z,6.50
2022-12-04T13:11:27.746Z,6.50
2022-12-04T13:14:02.382Z,6.40
2022-12-04T13:16:44.721Z,6.50
2022-12-04T13:19:30.605Z,6.60
2022-12-04T13:22:15.751Z,6.60
2022-12-04T13:24:43.366Z,6.60
2022-12-04T13:27:46.980Z,6.60
2022-12-04T13:30:17.264Z,6.70
2022-12-04T13:33:03.257Z,6.80
2022-12-04T13:36:12.521Z,6.70
2022-12-04T13:39:07.383Z,6.50
2022-12-04T13:41:38.525Z,6.40
2022-12-04T13:44:21.385Z,6.30
2022-12-04T13:47:01.162Z,6.20
2022-12-04T13:49:30.001Z,6.10
2022-12-04T13:51:59.555Z,6.20
2022-12-04T13:54:31.689Z,6.10
2022-12-04T13:57:21.258Z,6.20
2022-12-04T13:59:49.590Z,6.20
2022-12-04T14:02:29.153Z,6.40
2022-12-04T14:05:06.031Z,6.30
2022-12-04T14:07:44.509Z,6.40
2022-12-04T14:10:14.822Z,6.50
2022-12-04T14:12:49.744Z,6.50
2022-12-04T14:15:24.570Z,6.60
2022-12-04T14:18:02.899Z,6.70
2022-12-04T14:20:33.609Z,6.70
2022-12-04T14:23:16.453Z,6.60
2022-12-04T14:25:44.436Z,6.60
2022-12-04T14:28:31.557Z,6.60
2022-12-04T14:31:31.161Z,6.70
2022-12-04T14:34:23.410Z,6.60
2022-12-04T14:36:53.843Z,6.50
2022-12-04T14:39:27.963Z,6.50
2022-12-04T14:42:22.223Z,6.50
2022-12-04T14:44:58.200Z,6.40
2022-12-04T14:47:32.111Z,6.40
2022-12-04T14:50:14.436Z,6.30
2022-12-04T14:53:06.171Z,6.30
2022-12-04T14:55:47.210Z,6.30
2022-12-04T14:58:31.844Z,6.30
2022-12-04T15:01:02.096Z,6.40
2022-12-04T15:03:35.973Z,6.40
2022-12-04T15:06:06.836Z,6.40
2022-12-04T15:08:34.986Z,6.50
2022-12-04T15:11:24.870Z,6.40
2022-12-04T15:13:52.551Z,6.20
2022-12-04T15:16:23.223Z,6.20
2022-12-04T15:18:59.215Z,6.10
2022-12-04T15:21:35.530Z,6.10
2022-12-04T15:24:20.456Z,6.10
2022-12-04T15:26:49.858Z,6.00
2022-12-04T15:29:22.637Z,6.20
2022-12-04T15:31:57.833Z,6.10
2022-12-04T15:34:41.981Z,6.10
2022-12-04T15:37:20.307Z,6.10
2022-12-04T15:39:50.815Z,6.20
2022-12-04T15:42:27.817Z,6.10
2022-12-04T15:45:15.559Z,6.20
2022-12-04T15:47:43.039Z,6.20
2022-12-04T15:50:10.495Z,6.20
2022-12-04T15:52:38.538Z,6.20
2022-12-04T15:55:08.917Z,6.20
2022-12-04T15:57:41.057Z,6.20
2022-12-04T16:00:23.303Z,6.20
2022-12-04T16:02:51.223Z,6.40
2022-12-04T16:05:21.454Z,6.40
2022-12-04T16:08:01.377Z,6.40
2022-12-04T16:10:32.685Z,6.40
2022-12-04T16:13:02.901Z,6.40
2022-12-04T16:15:48.752Z,6.40
2022-12-04T16:18:16.270Z,6.40
2022-12-04T16:20:43.908Z,6.40
2022-12-04T16:23:12.012Z,6.50
2022-12-04T16:25:39.821Z,6.40
2022-12-04T16:28:07.788Z,6.40
2022-12-04T16:30:36.145Z,6.40
2022-12-04T16:33:03.960Z,6.40
2022-12-04T16:35:31.792Z,6.40
2022-12-04T16:37:59.499Z,6.40
2022-12-04T16:40:27.073Z,6.40
2022-12-04T16:42:54.771Z,6.40
2022-12-04T16:45:29.660Z,6.40
2022-12-04T16:47:58.205Z,6.50
2022-12-04T16:50:27.077Z,6.40
2022-12-04T16:52:54.866Z,6.30
2022-12-04T16:55:37.263Z,6.30
2022-12-04T16:58:05.772Z,6.30
2022-12-04T17:00:36.821Z,6.20
2022-12-04T17:03:05.020Z,6.30
2022-12-04T17:05:35.786Z,6.30
2022-12-04T17:08:03.563Z,6.30
2022-12-04T17:10:31.220Z,6.10
2022-12-04T17:12:58.738Z,6.00
2022-12-04T17:15:26.260Z,6.00
2022-12-04T17:17:53.773Z,5.90
2022-12-04T17:20:21.493Z,6.10
2022-12-04T17:22:49.471Z,6.10
2022-12-04T17:25:17.595Z,6.10
2022-12-04T17:27:45.125Z,6.10
2022-12-04T17:30:13.946Z,5.90
2022-12-04T17:32:41.664Z,5.90
2022-12-04T17:35:11.425Z,5.90
2022-12-04T17:37:39.009Z,5.80
2022-12-04T17:40:08.312Z,5.80
2022-12-04T17:42:36.073Z,5.90
2022-12-04T17:45:04.303Z,6.10
2022-12-04T17:47:31.804Z,6.10
2022-12-04T17:49:59.284Z,6.00
2022-12-04T17:52:29.029Z,5.90
2022-12-04T17:54:56.877Z,5.90
2022-12-04T17:57:24.542Z,5.90
2022-12-04T17:59:52.165Z,5.90
2022-12-04T18:02:19.600Z,6.00
2022-12-04T18:04:47.124Z,5.90
2022-12-04T18:07:14.599Z,6.00
2022-12-04T18:09:42.181Z,6.00
2022-12-04T18:12:09.614Z,5.90
2022-12-04T18:14:38.376Z,6.00
2022-12-04T18:17:05.917Z,6.00
2022-12-04T18:19:33.632Z,6.10
2022-12-04T18:22:01.278Z,6.10
2022-12-04T18:24:28.954Z,6.20
2022-12-04T18:26:56.539Z,6.20
2022-12-04T18:29:26.242Z,6.10
2022-12-04T18:31:54.408Z,6.20
2022-12-04T18:34:22.885Z,6.20
2022-12-04T18:36:50.766Z,6.30
2022-12-04T18:39:22.202Z,6.50
2022-12-04T18:41:50.428Z,6.40
2022-12-04T18:44:19.525Z,6.50
2022-12-04T18:46:47.099Z,6.40
2022-12-04T18:49:14.859Z,6.30
2022-12-04T18:51:49.173Z,6.30
2022-12-04T18:54:23.287Z,6.30
2022-12-04T18:56:51.042Z,6.30
2022-12-04T18:59:27.184Z,6.30
2022-12-04T19:01:55.883Z,6.20
2022-12-04T19:04:24.838Z,6.10
2022-12-04T19:06:54.923Z,6.10
2022-12-04T19:09:47.159Z,5.90
2022-12-04T19:12:13.617Z,6.10
2022-12-04T19:14:41.296Z,6.00
2022-12-04T19:17:09.189Z,6.10
2022-12-04T19:19:36.981Z,6.00
2022-12-04T19:22:04.644Z,6.00
2022-12-04T19:24:32.317Z,6.00
2022-12-04T19:27:00.421Z,6.10
2022-12-04T19:29:27.960Z,6.10
2022-12-04T19:31:59.332Z,6.10
2022-12-04T19:34:27.510Z,6.20
2022-12-04T19:36:55.368Z,6.10
2022-12-04T19:39:23.423Z,6.30
2022-12-04T19:41:50.881Z,6.30
2022-12-04T19:47:06.890Z,5.90
2022-12-04T19:49:34.940Z,5.80
2022-12-04T19:52:02.459Z,5.80
2022-12-04T19:54:30.395Z,5.80
2022-12-04T19:56:58.700Z,5.70
2022-12-04T19:59:27.160Z,5.70
2022-12-04T20:01:57.504Z,5.80
2022-12-04T20:04:25.150Z,5.90
2022-12-04T20:06:53.241Z,6.00
2022-12-04T20:09:22.652Z,6.00
2022-12-04T20:11:50.267Z,5.80
2022-12-04T20:14:18.006Z,5.80
2022-12-04T20:16:46.413Z,5.90
2022-12-04T20:19:17.090Z,5.80
2022-12-04T20:21:45.976Z,5.90
2022-12-04T20:24:16.210Z,6.10
2022-12-04T20:26:46.795Z,6.10
2022-12-04T20:29:16.307Z,6.20
2022-12-04T20:31:46.267Z,6.10
2022-12-04T20:34:16.880Z,6.10
2022-12-04T20:36:45.797Z,6.20
2022-12-04T20:39:14.126Z,6.20
2022-12-04T20:41:41.828Z,6.20
2022-12-04T20:44:13.626Z,6.20
2022-12-04T20:46:42.558Z,6.10
2022-12-04T20:49:20.768Z,6.10
2022-12-04T20:51:50.590Z,6.20
2022-12-04T20:54:19.699Z,6.20
2022-12-04T20:56:49.042Z,6.30
2022-12-04T20:59:18.404Z,6.30
2022-12-04T21:01:46.532Z,6.30
2022-12-04T21:04:14.192Z,6.30
2022-12-04T21:06:42.349Z,6.20
2022-12-04T21:09:17.464Z,6.20
2022-12-04T21:11:48.012Z,6.10
2022-12-04T21:14:41.073Z,6.10
2022-12-04T21:17:11.825Z,6.20
2022-12-04T21:19:39.407Z,6.30
2022-12-04T21:22:06.949Z,6.30
2022-12-04T21:24:38.746Z,6.30
2022-12-04T21:27:09.152Z,6.30
2022-12-04T21:29:37.896Z,6.30
2022-12-04T21:32:06.734Z,6.10
2022-12-04T21:34:34.636Z,6.20
2022-12-04T21:37:02.248Z,6.30
2022-12-04T21:39:29.810Z,6.30
2022-12-04T21:42:15.877Z,6.30
2022-12-04T21:44:43.549Z,6.20
2022-12-04T21:47:11.004Z,6.30
2022-12-04T21:49:38.658Z,6.20
2022-12-04T21:52:06.210Z,6.20
2022-12-04T21:54:33.705Z,6.30
2022-12-04T21:57:01.177Z,6.20
2022-12-04T21:59:28.853Z,6.30
2022-12-04T22:01:56.525Z,6.40
2022-12-04T22:04:24.180Z,6.40
2022-12-04T22:06:51.715Z,6.50
2022-12-04T22:09:19.351Z,6.40
2022-12-04T22:11:46.829Z,6.30
2022-12-04T22:14:14.458Z,6.30
2022-12-04T22:16:43.291Z,6.40
2022-12-04T22:19:12.892Z,6.20
2022-12-04T22:21:41.606Z,6.10
2022-12-04T22:24:10.642Z,6.20
2022-12-04T22:26:38.786Z,6.10
2022-12-04T22:29:27.306Z,6.10
2022-12-04T22:31:54.006Z,6.10
2022-12-04T22:34:21.563Z,6.10
2022-12-04T22:36:49.956Z,6.10
2022-12-04T22:39:17.654Z,6.10
2022-12-04T22:41:45.246Z,6.10
2022-12-04T22:44:12.872Z,6.30
2022-12-04T22:46:40.531Z,6.30
2022-12-04T22:49:08.092Z,6.20
2022-12-04T22:51:35.711Z,6.10
2022-12-04T22:54:03.216Z,6.20
2022-12-04T22:56:32.087Z,6.20
2022-12-04T22:59:00.463Z,6.20
2022-12-04T23:01:31.169Z,6.20
2022-12-04T23:03:59.335Z,6.10
2022-12-04T23:06:29.359Z,6.20
2022-12-04T23:09:04.400Z,6.30
2022-12-04T23:11:32.062Z,6.30
2022-12-04T23:14:01.810Z,6.40
2022-12-04T23:16:31.579Z,6.30
2022-12-04T23:18:59.453Z,6.30
2022-12-04T23:21:27.312Z,6.20
2022-12-04T23:23:56.012Z,6.20
2022-12-04T23:26:26.352Z,6.20
2022-12-04T23:28:54.887Z,6.20
2022-12-04T23:31:22.418Z,6.30
2022-12-04T23:33:50.229Z,6.30
2022-12-04T23:36:17.771Z,6.30
2022-12-04T23:38:45.603Z,6.40
2022-12-04T23:41:17.823Z,6.40
2022-12-04T23:43:46.031Z,6.20
2022-12-04T23:46:16.409Z,6.10
2022-12-04T23:48:45.188Z,6.10
2022-12-04T23:51:15.714Z,6.30
2022-12-04T23:53:43.957Z,6.30
2022-12-04T23:56:29.380Z,6.30
2022-12-04T23:58:58.057Z,6.30
